createdAt,value
2018-08-09T00:01:10.996Z,95443.84
2018-08-09T00:03:40.041Z,95444.09
2018-08-09T00:06:09.098Z,95439.55
2018-08-09T00:08:38.152Z,95437.50
2018-08-09T00:13:42.959Z,95417.02
2018-08-09T00:16:12.016Z,95416.02
2018-08-09T00:18:42.030Z,95411.33
2018-08-09T00:21:11.081Z,95410.80
2018-08-09T00:23:40.168Z,95417.72
2018-08-09T00:26:10.170Z,95414.49
2018-08-09T00:28:39.209Z,95412.20
2018-08-09T00:31:08.329Z,95408.33
2018-08-09T00:33:38.365Z,95399.49
2018-08-09T00:36:07.421Z,95400.23
2018-08-09T00:38:36.477Z,95397.28
2018-08-09T00:41:05.524Z,95392.06
2018-08-09T00:43:34.575Z,95393.00
2018-08-09T00:46:03.620Z,95389.02
2018-08-09T00:48:32.677Z,95386.12
2018-08-09T00:51:01.753Z,95383.17
2018-08-09T00:53:30.972Z,95374.11
2018-08-09T00:58:35.746Z,95363.48
2018-08-09T01:06:16.871Z,95353.85
2018-08-09T01:11:21.710Z,95349.86
2018-08-09T01:16:27.053Z,95347.84
2018-08-09T01:21:31.823Z,95349.59
2018-08-09T01:24:01.845Z,95355.89
2018-08-09T01:26:30.949Z,95360.50
2018-08-09T01:28:59.982Z,95358.28
2018-08-09T01:31:29.016Z,95359.84
2018-08-09T01:33:58.083Z,95360.82
2018-08-09T01:36:27.129Z,95358.61
2018-08-09T01:38:57.145Z,95356.50
2018-08-09T01:41:26.402Z,95363.08
2018-08-09T01:43:56.461Z,95366.63
2018-08-09T01:46:25.519Z,95368.03
2018-08-09T01:48:54.573Z,95368.84
2018-08-09T01:51:23.612Z,95367.55
2018-08-09T01:53:52.668Z,95372.55
2018-08-09T01:56:21.711Z,95375.45
2018-08-09T01:58:50.762Z,95378.08
2018-08-09T02:03:55.644Z,95374.41
2018-08-09T02:09:02.400Z,95373.22
2018-08-09T02:16:44.590Z,95358.48
2018-08-09T02:19:15.777Z,95356.66
2018-08-09T02:24:20.553Z,95355.68
2018-08-09T02:26:49.605Z,95358.73
2018-08-09T02:29:18.772Z,95351.77
2018-08-09T02:31:47.841Z,95348.50
2018-08-09T02:34:16.894Z,95347.88
2018-08-09T02:36:45.964Z,95346.00
2018-08-09T02:39:15.030Z,95348.06
2018-08-09T02:41:44.092Z,95344.41
2018-08-09T02:44:13.163Z,95341.27
2018-08-09T02:46:42.282Z,95344.77
2018-08-09T02:49:11.397Z,95343.41
2018-08-09T02:51:40.463Z,95340.79
2018-08-09T02:54:09.506Z,95334.88
2018-08-09T02:56:38.574Z,95329.93
2018-08-09T02:59:07.617Z,95333.20
2018-08-09T03:04:12.395Z,95333.40
2018-08-09T03:06:41.474Z,95327.66
2018-08-09T03:09:10.561Z,95329.01
2018-08-09T03:11:39.612Z,95328.64
2018-08-09T03:14:08.815Z,95325.47
2018-08-09T03:16:37.884Z,95317.07
2018-08-09T03:19:08.930Z,95316.00
2018-08-09T03:21:37.990Z,95316.60
2018-08-09T03:24:07.020Z,95318.92
2018-08-09T03:26:36.069Z,95322.42
2018-08-09T03:29:05.110Z,95322.42
2018-08-09T03:31:34.160Z,95322.75
2018-08-09T03:34:03.190Z,95321.69
2018-08-09T03:36:32.248Z,95316.77
2018-08-09T03:39:01.298Z,95320.73
2018-08-09T03:44:06.075Z,95319.00
2018-08-09T03:46:35.353Z,95312.41
2018-08-09T03:51:40.120Z,95318.31
2018-08-09T03:54:09.169Z,95313.03
2018-08-09T03:56:38.233Z,95318.22
2018-08-09T03:59:07.685Z,95317.23
2018-08-09T04:01:36.727Z,95314.15
2018-08-09T04:04:06.730Z,95309.88
2018-08-09T04:09:11.506Z,95324.31
2018-08-09T04:11:40.608Z,95327.90
2018-08-09T04:14:10.584Z,95331.93
2018-08-09T04:16:39.719Z,95331.89
2018-08-09T04:19:08.764Z,95336.53
2018-08-09T04:21:37.857Z,95335.17
2018-08-09T04:24:06.934Z,95341.20
2018-08-09T04:29:11.902Z,95345.83
2018-08-09T04:31:41.008Z,95340.42
2018-08-09T04:36:45.830Z,95339.97
2018-08-09T04:39:15.361Z,95338.43
2018-08-09T04:41:44.409Z,95332.83
2018-08-09T04:44:13.598Z,95333.95
2018-08-09T04:46:42.705Z,95336.45
2018-08-09T04:51:47.608Z,95333.95
2018-08-09T04:54:16.676Z,95335.67
2018-08-09T04:56:45.837Z,95344.50
2018-08-09T04:59:14.932Z,95343.27
2018-08-09T05:01:43.981Z,95340.94
2018-08-09T05:04:13.062Z,95343.52
2018-08-09T05:09:17.833Z,95350.66
2018-08-09T05:11:47.081Z,95357.97
2018-08-09T05:14:16.236Z,95356.59
2018-08-09T05:16:45.290Z,95359.00
2018-08-09T05:19:14.609Z,95361.01
2018-08-09T05:24:19.640Z,95360.20
2018-08-09T05:26:48.724Z,95349.48
2018-08-09T05:29:17.780Z,95353.44
2018-08-09T05:31:47.114Z,95360.28
2018-08-09T05:34:16.245Z,95361.22
2018-08-09T05:36:45.245Z,95360.13
2018-08-09T05:39:14.671Z,95370.83
2018-08-09T05:41:44.705Z,95363.36
2018-08-09T05:44:13.755Z,95363.85
2018-08-09T05:46:42.813Z,95361.67
2018-08-09T05:49:13.021Z,95358.78
2018-08-09T05:51:42.093Z,95364.39
2018-08-09T05:54:11.148Z,95367.48
2018-08-09T05:56:54.014Z,95370.21
2018-08-09T05:59:35.723Z,95368.91
2018-08-09T06:02:15.038Z,95375.77
2018-08-09T06:04:44.605Z,95371.53
2018-08-09T06:07:13.667Z,95363.69
2018-08-09T06:09:42.883Z,95367.02
2018-08-09T06:12:11.980Z,95364.63
2018-08-09T06:14:41.028Z,95370.88
2018-08-09T06:17:10.608Z,95371.80
2018-08-09T06:20:09.277Z,95370.30
2018-08-09T06:22:38.336Z,95373.21
2018-08-09T06:25:07.405Z,95373.02
2018-08-09T06:27:37.366Z,95369.88
2018-08-09T06:30:06.516Z,95375.58
2018-08-09T06:32:35.582Z,95374.94
2018-08-09T06:35:04.827Z,95370.72
2018-08-09T06:37:33.897Z,95365.80
2018-08-09T06:40:02.980Z,95367.77
2018-08-09T06:42:32.010Z,95365.92
2018-08-09T06:45:01.074Z,95371.73
2018-08-09T06:47:32.169Z,95371.46
2018-08-09T06:50:01.170Z,95369.81
2018-08-09T06:52:30.214Z,95372.02
2018-08-09T06:57:35.998Z,95363.70
2018-08-09T07:00:07.089Z,95359.55
2018-08-09T07:02:38.070Z,95359.41
2018-08-09T07:05:07.105Z,95355.86
2018-08-09T07:07:36.167Z,95357.22
2018-08-09T07:10:06.232Z,95352.26
2018-08-09T07:12:35.285Z,95356.88
2018-08-09T07:15:04.330Z,95357.28
2018-08-09T07:17:33.394Z,95358.59
2018-08-09T07:22:38.255Z,95356.70
2018-08-09T07:25:08.259Z,95357.80
2018-08-09T07:27:37.402Z,95359.25
2018-08-09T07:30:06.448Z,95362.23
2018-08-09T07:32:35.489Z,95362.58
2018-08-09T07:35:04.576Z,95355.25
2018-08-09T07:37:35.608Z,95355.07
2018-08-09T07:42:40.526Z,95351.59
2018-08-09T07:47:45.434Z,95343.41
2018-08-09T07:52:50.277Z,95343.50
2018-08-09T07:55:19.343Z,95340.59
2018-08-09T07:57:48.567Z,95340.53
2018-08-09T08:00:17.605Z,95336.19
2018-08-09T08:02:46.670Z,95331.09
2018-08-09T08:05:15.780Z,95327.99
2018-08-09T08:10:20.714Z,95319.16
2018-08-09T08:12:49.906Z,95320.56
2018-08-09T08:15:18.925Z,95319.21
2018-08-09T08:17:48.148Z,95320.09
2018-08-09T08:20:17.170Z,95318.03
2018-08-09T08:25:21.986Z,95317.02
2018-08-09T08:27:51.738Z,95320.14
2018-08-09T08:32:56.570Z,95312.70
2018-08-09T08:35:25.747Z,95307.84
2018-08-09T08:37:54.825Z,95302.48
2018-08-09T08:42:59.720Z,95298.12
2018-08-09T08:45:28.814Z,95299.20
2018-08-09T08:47:59.919Z,95293.95
2018-08-09T08:50:29.940Z,95295.02
2018-08-09T08:52:59.001Z,95284.86
2018-08-09T08:58:03.832Z,95277.44
2018-08-09T09:00:32.901Z,95268.84
2018-08-09T09:03:01.938Z,95262.97
2018-08-09T09:08:06.781Z,95264.50
2018-08-09T09:10:35.836Z,95271.26
2018-08-09T09:15:40.746Z,95257.31
2018-08-09T09:18:10.986Z,95251.73
2018-08-09T09:20:40.042Z,95249.56
2018-08-09T09:23:09.206Z,95250.19
2018-08-09T09:25:38.465Z,95252.00
2018-08-09T09:28:07.533Z,95253.50
2018-08-09T09:30:37.553Z,95250.14
2018-08-09T09:33:06.617Z,95244.44
2018-08-09T09:35:35.686Z,95243.30
2018-08-09T09:38:04.750Z,95248.55
2018-08-09T09:43:09.627Z,95250.76
2018-08-09T09:45:38.694Z,95253.89
2018-08-09T09:48:08.714Z,95247.86
2018-08-09T09:50:37.775Z,95243.88
2018-08-09T09:53:06.831Z,95245.30
2018-08-09T09:55:35.890Z,95242.66
2018-08-09T09:58:04.930Z,95243.80
2018-08-09T10:00:34.001Z,95240.66
2018-08-09T10:03:03.052Z,95239.78
2018-08-09T10:05:33.017Z,95235.89
2018-08-09T10:08:02.075Z,95234.76
2018-08-09T10:10:31.150Z,95236.31
2018-08-09T10:13:02.324Z,95229.94
2018-08-09T10:18:07.309Z,95223.90
2018-08-09T10:20:36.351Z,95219.45
2018-08-09T10:23:05.394Z,95211.41
2018-08-09T10:25:34.866Z,95205.23
2018-08-09T10:28:05.146Z,95203.16
2018-08-09T10:30:34.204Z,95205.33
2018-08-09T10:33:03.409Z,95201.52
2018-08-09T10:35:32.547Z,95199.09
2018-08-09T10:38:01.577Z,95192.09
2018-08-09T10:43:06.341Z,95178.05
2018-08-09T10:45:35.613Z,95184.54
2018-08-09T10:48:04.677Z,95185.41
2018-08-09T10:50:33.741Z,95187.78
2018-08-09T10:53:03.103Z,95192.41
2018-08-09T10:55:32.160Z,95192.03
2018-08-09T10:58:01.215Z,95180.83
2018-08-09T11:00:30.520Z,95177.34
2018-08-09T11:02:59.561Z,95170.22
2018-08-09T11:05:28.625Z,95161.13
2018-08-09T11:07:58.638Z,95155.98
2018-08-09T11:10:27.697Z,95158.68
2018-08-09T11:12:56.757Z,95153.68
2018-08-09T11:15:25.832Z,95146.71
2018-08-09T11:17:54.944Z,95157.80
2018-08-09T11:22:59.725Z,95160.92
2018-08-09T11:25:28.787Z,95159.95
2018-08-09T11:27:57.849Z,95151.09
2018-08-09T11:30:26.908Z,95154.55
2018-08-09T11:32:55.984Z,95146.54
2018-08-09T11:35:26.016Z,95156.67
2018-08-09T11:40:30.811Z,95158.83
2018-08-09T11:42:59.896Z,95151.78
2018-08-09T11:45:30.969Z,95149.04
2018-08-09T11:48:00.047Z,95149.14
2018-08-09T11:50:29.078Z,95153.22
2018-08-09T11:52:58.162Z,95152.36
2018-08-09T11:55:27.210Z,95144.58
2018-08-09T11:57:56.454Z,95134.71
2018-08-09T12:00:25.522Z,95129.63
2018-08-09T12:02:54.590Z,95129.72
2018-08-09T12:05:23.733Z,95126.43
2018-08-09T12:07:52.794Z,95127.40
2018-08-09T12:12:57.581Z,95122.48
2018-08-09T12:15:26.642Z,95130.15
2018-08-09T12:17:55.697Z,95120.16
2018-08-09T12:20:24.760Z,95117.69
2018-08-09T12:22:53.834Z,95120.64
2018-08-09T12:25:22.881Z,95115.81
2018-08-09T12:27:51.981Z,95112.25
2018-08-09T12:30:21.053Z,95106.68
2018-08-09T12:32:50.106Z,95099.78
2018-08-09T12:35:19.154Z,95105.29
2018-08-09T12:37:48.217Z,95096.00
2018-08-09T12:40:17.277Z,95100.98
2018-08-09T12:42:46.336Z,95092.45
2018-08-09T12:45:15.414Z,95087.62
2018-08-09T12:47:44.461Z,95094.48
2018-08-09T12:50:13.522Z,95080.46
2018-08-09T12:52:42.574Z,95084.23
2018-08-09T12:55:11.627Z,95084.06
2018-08-09T12:57:40.669Z,95078.92
2018-08-09T13:00:09.790Z,95075.49
2018-08-09T13:02:39.675Z,95081.25
2018-08-09T13:05:08.740Z,95079.14
2018-08-09T13:07:37.854Z,95075.36
2018-08-09T13:10:07.855Z,95081.38
2018-08-09T13:12:36.905Z,95078.83
2018-08-09T13:15:06.106Z,95076.77
2018-08-09T13:17:35.656Z,95076.36
2018-08-09T13:20:04.773Z,95067.02
2018-08-09T13:22:34.086Z,95065.95
2018-08-09T13:27:39.434Z,95056.50
2018-08-09T13:30:08.509Z,95055.59
2018-08-09T13:32:37.542Z,95069.92
2018-08-09T13:35:06.754Z,95067.38
2018-08-09T13:37:35.811Z,95061.67
2018-08-09T13:40:04.873Z,95056.70
2018-08-09T13:42:33.933Z,95048.59
2018-08-09T13:45:03.039Z,95041.14
2018-08-09T13:47:33.066Z,95037.67
2018-08-09T13:50:02.155Z,95040.45
2018-08-09T13:52:31.213Z,95044.47
2018-08-09T13:55:04.686Z,95047.80
2018-08-09T13:57:33.717Z,95042.88
2018-08-09T14:00:02.790Z,95037.03
2018-08-09T14:02:31.848Z,95037.64
2018-08-09T14:05:00.891Z,95037.98
2018-08-09T14:07:29.953Z,95039.37
2018-08-09T14:10:00.224Z,95033.00
2018-08-09T14:12:29.358Z,95025.19
2018-08-09T14:14:58.421Z,95027.80
2018-08-09T14:17:27.885Z,95021.80
2018-08-09T14:19:56.948Z,95012.66
2018-08-09T14:22:25.986Z,95004.02
2018-08-09T14:24:55.327Z,94997.98
2018-08-09T14:27:24.367Z,95003.50
2018-08-09T14:29:53.442Z,95014.89
2018-08-09T14:32:22.557Z,95022.67
2018-08-09T14:34:51.612Z,95015.31
2018-08-09T14:37:20.669Z,95006.13
2018-08-09T14:39:49.936Z,95008.55
2018-08-09T14:42:19.110Z,95015.16
2018-08-09T14:44:48.132Z,95019.79
2018-08-09T14:47:17.328Z,95020.78
2018-08-09T14:49:46.385Z,95021.55
2018-08-09T14:52:15.431Z,95018.91
2018-08-09T14:54:44.844Z,95022.68
2018-08-09T14:57:13.912Z,95024.18
2018-08-09T14:59:42.994Z,95010.85
2018-08-09T15:02:12.075Z,95014.12
2018-08-09T15:04:41.279Z,95009.03
2018-08-09T15:07:10.344Z,95012.58
2018-08-09T15:09:39.397Z,95014.12
2018-08-09T15:12:08.703Z,95013.05
2018-08-09T15:14:37.764Z,95012.25
2018-08-09T15:17:06.806Z,95000.37
2018-08-09T15:22:11.580Z,95009.98
2018-08-09T15:24:40.974Z,95010.80
2018-08-09T15:27:10.031Z,95021.38
2018-08-09T15:29:39.082Z,95016.02
2018-08-09T15:32:08.553Z,95023.25
2018-08-09T15:34:38.560Z,95011.94
2018-08-09T15:37:07.652Z,95019.98
2018-08-09T15:39:37.155Z,95018.48
2018-08-09T15:42:06.190Z,95008.87
2018-08-09T15:44:35.253Z,95015.13
2018-08-09T15:47:04.521Z,95025.81
2018-08-09T15:49:33.547Z,95026.07
2018-08-09T15:52:03.577Z,95024.72
2018-08-09T15:54:32.658Z,95026.49
2018-08-09T15:57:01.684Z,95023.06
2018-08-09T15:59:30.736Z,95023.58
2018-08-09T16:01:59.797Z,95021.45
2018-08-09T16:04:28.856Z,95020.66
2018-08-09T16:06:57.920Z,95027.25
2018-08-09T16:14:38.429Z,95028.09
2018-08-09T16:17:07.477Z,95028.70
2018-08-09T16:19:36.537Z,95036.96
2018-08-09T16:22:05.601Z,95029.83
2018-08-09T16:24:34.680Z,95026.50
2018-08-09T16:27:03.766Z,95028.14
2018-08-09T16:29:33.800Z,95030.47
2018-08-09T16:32:03.120Z,95033.32
2018-08-09T16:37:08.154Z,95035.30
2018-08-09T16:39:37.212Z,95036.64
2018-08-09T16:44:42.133Z,95044.16
2018-08-09T16:47:11.235Z,95045.97
2018-08-09T16:49:40.819Z,95042.81
2018-08-09T16:52:09.916Z,95051.08
2018-08-09T16:54:38.969Z,95050.70
2018-08-09T16:57:08.249Z,95054.19
2018-08-09T16:59:37.476Z,95053.81
2018-08-09T17:04:42.309Z,95052.88
2018-08-09T17:07:11.384Z,95053.95
2018-08-09T17:09:40.433Z,95089.73
2018-08-09T17:12:09.505Z,95099.28
2018-08-09T17:19:49.891Z,95141.25
2018-08-09T17:22:19.891Z,95158.33
2018-08-09T17:24:49.917Z,95179.84
2018-08-09T17:27:21.000Z,95183.66
2018-08-09T17:29:50.061Z,95209.70
2018-08-09T17:32:20.333Z,95219.77
2018-08-09T17:37:26.166Z,95235.14
2018-08-09T17:39:55.209Z,95245.58
2018-08-09T17:42:24.263Z,95258.34
2018-08-09T17:44:53.311Z,95258.59
2018-08-09T17:47:22.376Z,95273.34
2018-08-09T17:49:51.425Z,95277.13
2018-08-09T17:52:20.525Z,95282.76
2018-08-09T17:54:50.475Z,95299.88
2018-08-09T17:57:21.082Z,95314.48
2018-08-09T17:59:50.132Z,95324.86
2018-08-09T18:02:19.225Z,95327.56
2018-08-09T18:04:48.276Z,95339.28
2018-08-09T18:07:17.323Z,95346.73
2018-08-09T18:09:46.585Z,95350.63
2018-08-09T18:12:15.668Z,95363.03
2018-08-09T18:14:44.666Z,95370.15
2018-08-09T18:17:13.785Z,95365.89
2018-08-09T18:19:42.849Z,95376.81
2018-08-09T18:22:11.906Z,95382.63
2018-08-09T18:24:40.965Z,95384.89
2018-08-09T18:27:10.397Z,95388.40
2018-08-09T18:29:39.445Z,95396.70
2018-08-09T18:32:09.525Z,95403.95
2018-08-09T18:37:14.413Z,95428.48
2018-08-09T18:39:46.415Z,95437.06
2018-08-09T18:42:15.481Z,95449.75
2018-08-09T18:44:44.557Z,95442.67
2018-08-09T18:47:14.246Z,95453.76
2018-08-09T18:49:43.352Z,95465.42
2018-08-09T18:52:14.289Z,95472.51
2018-08-09T18:54:43.675Z,95480.34
2018-08-09T18:57:12.717Z,95486.20
2018-08-09T18:59:41.817Z,95491.43
2018-08-09T19:02:12.581Z,95492.86
2018-08-09T19:04:42.032Z,95500.91
2018-08-09T19:07:11.166Z,95506.95
2018-08-09T19:12:16.026Z,95559.51
2018-08-09T19:14:45.345Z,95587.23
2018-08-09T19:17:14.406Z,95581.18
2018-08-09T19:22:19.351Z,95592.26
2018-08-09T19:24:48.492Z,95597.84
2018-08-09T19:27:17.633Z,95608.02
2018-08-09T19:29:46.947Z,95602.19
2018-08-09T19:32:16.004Z,95606.63
2018-08-09T19:34:46.086Z,95610.99
2018-08-09T19:37:15.245Z,95611.27
2018-08-09T19:39:44.355Z,95611.72
2018-08-09T19:44:49.262Z,95615.02
2018-08-09T19:49:54.566Z,95608.73
2018-08-09T19:52:24.112Z,95607.14
2018-08-09T19:54:53.157Z,95616.03
2018-08-09T19:57:22.215Z,95620.65
2018-08-09T19:59:51.809Z,95616.28
2018-08-09T20:02:20.778Z,95612.50
2018-08-09T20:07:26.075Z,95609.31
2018-08-09T20:09:56.109Z,95602.73
2018-08-09T20:12:25.176Z,95603.19
2018-08-09T20:14:54.230Z,95601.22
2018-08-09T20:17:23.348Z,95612.50
2018-08-09T20:19:53.992Z,95633.72
2018-08-09T20:22:23.045Z,95622.23
2018-08-09T20:24:53.205Z,95619.43
2018-08-09T20:27:22.342Z,95634.81
2018-08-09T20:29:51.604Z,95656.59
2018-08-09T20:32:20.649Z,95675.16
2018-08-09T20:34:51.688Z,95679.10
2018-08-09T20:37:21.736Z,95681.73
2018-08-09T20:42:26.821Z,95685.43
2018-08-09T20:44:57.250Z,95685.23
2018-08-09T20:47:28.343Z,95680.32
2018-08-09T20:49:57.389Z,95673.48
2018-08-09T20:52:26.792Z,95672.91
2018-08-09T20:54:55.858Z,95673.98
2018-08-09T20:57:25.002Z,95671.44
2018-08-09T20:59:54.238Z,95674.27
2018-08-09T21:02:23.275Z,95671.87
2018-08-09T21:04:54.303Z,95673.83
2018-08-09T21:07:25.278Z,95675.39
2018-08-09T21:09:55.005Z,95676.05
2018-08-09T21:12:25.055Z,95676.58
2018-08-09T21:14:56.717Z,95674.20
2018-08-09T21:17:26.309Z,95672.41
2018-08-09T21:19:55.360Z,95678.83
2018-08-09T21:22:24.410Z,95681.94
2018-08-09T21:24:53.460Z,95682.69
2018-08-09T21:27:22.537Z,95689.53
2018-08-09T21:29:52.017Z,95693.82
2018-08-09T21:32:21.113Z,95698.20
2018-08-09T21:34:50.138Z,95703.44
2018-08-09T21:37:19.442Z,95706.45
2018-08-09T21:42:25.784Z,95707.34
2018-08-09T21:44:55.274Z,95714.31
2018-08-09T21:47:24.547Z,95713.59
2018-08-09T21:49:53.859Z,95717.14
2018-08-09T21:52:22.969Z,95725.48
2018-08-09T21:54:52.356Z,95732.55
2018-08-09T21:57:23.085Z,95745.37
2018-08-09T22:02:27.947Z,95748.25
2018-08-09T22:04:57.019Z,95757.02
2018-08-09T22:24:22.371Z,95751.75
2018-08-09T22:26:51.413Z,95750.55
2018-08-09T22:29:20.456Z,95754.87
2018-08-09T22:31:49.778Z,95766.30
2018-08-09T22:34:18.832Z,95771.08
2018-08-09T22:36:47.903Z,95775.95
2018-08-09T22:39:17.937Z,95773.53
2018-08-09T22:44:22.719Z,95770.48
2018-08-09T22:46:51.794Z,95775.11
2018-08-09T22:49:20.909Z,95772.27
2018-08-09T22:51:49.962Z,95772.13
2018-08-09T22:54:19.018Z,95775.11
2018-08-09T22:59:24.273Z,95796.00
2018-08-09T23:04:29.052Z,95797.75
2018-08-09T23:06:58.133Z,95808.70
2018-08-09T23:09:27.189Z,95811.00
2018-08-09T23:11:57.165Z,95809.13
2018-08-09T23:14:26.233Z,95808.03
2018-08-09T23:16:55.313Z,95813.77
2018-08-09T23:19:24.380Z,95818.09
2018-08-09T23:21:53.445Z,95822.97
2018-08-09T23:24:22.493Z,95824.45
2018-08-09T23:26:51.565Z,95832.34
2018-08-09T23:29:22.548Z,95833.46
2018-08-09T23:31:52.574Z,95832.93
2018-08-09T23:34:22.594Z,95837.52
2018-08-09T23:36:51.724Z,95839.63
2018-08-09T23:39:20.805Z,95842.64
2018-08-09T23:41:49.861Z,95843.86
2018-08-09T23:44:18.938Z,95848.55
2018-08-09T23:46:47.997Z,95846.73
2018-08-09T23:49:17.133Z,95852.67
2018-08-09T23:54:21.977Z,95849.11
2018-08-09T23:56:51.064Z,95850.47
2018-08-09T23:59:20.118Z,95862.48
